createdAt,value
2017-12-03T15:06:43.377Z,80.4
2017-12-03T15:07:45.060Z,80.4
2017-12-03T15:08:46.706Z,80.6
2017-12-03T15:09:48.416Z,80.8
2017-12-03T15:10:50.076Z,81.4
2017-12-03T15:11:51.784Z,81.6
2017-12-03T15:12:53.658Z,82.4
2017-12-03T15:13:55.323Z,81.8
2017-12-03T15:14:57.027Z,81.9
2017-12-03T15:15:58.786Z,82.5
2017-12-03T15:17:04.745Z,83.3
2017-12-03T15:18:06.662Z,83.3
2017-12-03T15:19:08.575Z,82.4
2017-12-03T15:20:10.730Z,82.6
2017-12-03T15:21:15.935Z,82.3
2017-12-03T15:22:20.193Z,83.3
2017-12-03T15:23:22.852Z,84.0
2017-12-03T15:24:25.114Z,85.5
2017-12-03T15:25:27.509Z,86.2
2017-12-03T15:26:29.639Z,86.2
2017-12-03T15:27:31.678Z,86.6
2017-12-03T15:28:33.635Z,86.9
2017-12-03T15:29:38.809Z,86.7
2017-12-03T15:30:40.759Z,86.6
2017-12-03T15:31:42.852Z,86.1
2017-12-03T15:32:45.080Z,86.1
2017-12-03T15:33:47.470Z,86.7
2017-12-03T15:35:00.012Z,85.8
2017-12-03T15:36:02.089Z,84.6
2017-12-03T15:37:04.074Z,84.5
2017-12-03T15:39:17.999Z,84.1
2017-12-03T15:40:19.884Z,84.7
2017-12-03T15:41:21.943Z,84.9
2017-12-03T15:42:23.890Z,84.9
2017-12-03T15:43:25.749Z,84.6
2017-12-03T15:44:27.908Z,84.9
2017-12-03T15:45:30.893Z,83.9
2017-12-03T15:46:33.281Z,83.8
2017-12-03T15:47:35.394Z,82.2
2017-12-03T15:48:37.868Z,81.5
2017-12-03T15:49:39.955Z,80.7
2017-12-03T15:50:41.791Z,78.8
2017-12-03T15:51:51.042Z,79.0
2017-12-03T15:52:53.397Z,79.2
2017-12-03T15:53:57.731Z,79.2
2017-12-03T15:55:18.272Z,79.5
2017-12-03T15:56:23.040Z,79.5
2017-12-03T15:57:46.528Z,80.7
2017-12-03T15:58:49.393Z,80.9
2017-12-03T15:59:55.245Z,80.8
2017-12-03T16:00:58.487Z,78.9
2017-12-03T16:02:02.843Z,77.9
2017-12-03T16:03:10.024Z,76.5
2017-12-03T16:04:13.834Z,75.9
2017-12-03T16:05:15.585Z,75.4
2017-12-03T16:06:24.177Z,76.0
2017-12-03T16:07:36.940Z,75.9
2017-12-03T16:08:39.692Z,77.2
2017-12-03T16:09:42.254Z,77.4
2017-12-03T16:10:44.871Z,78.0
2017-12-03T16:11:47.295Z,78.7
2017-12-03T16:12:53.649Z,79.7
2017-12-03T16:13:56.408Z,80.6
2017-12-03T16:14:58.682Z,80.9
2017-12-03T16:16:00.501Z,81.4
2017-12-03T16:17:02.909Z,81.9
2017-12-03T16:18:04.895Z,82.5
2017-12-03T16:19:07.033Z,83.1
2017-12-03T16:20:09.023Z,84.0
2017-12-03T16:21:10.959Z,84.5
2017-12-03T16:22:13.047Z,85.4
2017-12-03T16:23:15.486Z,85.6
2017-12-03T16:24:18.865Z,86.1
2017-12-03T16:25:20.902Z,86.7
2017-12-03T16:26:23.082Z,86.3
2017-12-03T16:27:25.137Z,85.8
2017-12-03T16:28:27.251Z,85.8
2017-12-03T16:29:29.341Z,86.0
2017-12-03T16:30:31.393Z,85.2
2017-12-03T16:31:33.404Z,85.1
2017-12-03T16:32:35.416Z,84.4
2017-12-03T16:33:37.594Z,84.0
2017-12-03T16:34:39.850Z,84.2
2017-12-03T16:35:41.692Z,84.2
2017-12-03T16:36:43.720Z,84.2
2017-12-03T16:37:45.700Z,84.3
2017-12-03T16:38:47.677Z,83.9
2017-12-03T16:39:49.655Z,83.7
2017-12-03T16:40:51.787Z,83.9
2017-12-03T16:41:53.913Z,83.1
2017-12-03T16:42:55.844Z,82.3
2017-12-03T16:43:57.913Z,82.6
2017-12-03T16:44:59.954Z,82.6
2017-12-03T16:46:01.955Z,82.7
2017-12-03T16:47:03.947Z,82.5
2017-12-03T16:48:05.895Z,81.8
2017-12-03T16:49:07.941Z,80.6
2017-12-03T16:50:09.892Z,81.3
2017-12-03T16:51:11.814Z,81.4
2017-12-03T16:52:14.005Z,81.3
2017-12-03T16:53:15.980Z,81.5
2017-12-03T16:54:17.914Z,81.8
2017-12-03T16:55:19.866Z,81.8
2017-12-03T16:56:21.720Z,81.6
2017-12-03T16:57:23.454Z,82.0
2017-12-03T16:58:25.207Z,81.0
2017-12-03T16:59:26.941Z,81.3
2017-12-03T17:00:28.692Z,82.1
2017-12-03T17:01:30.409Z,81.2
2017-12-03T17:02:32.257Z,81.3
2017-12-03T17:03:34.067Z,82.0
2017-12-03T17:04:35.966Z,81.8
2017-12-03T17:05:37.837Z,82.0
2017-12-03T17:06:39.658Z,82.0
2017-12-03T17:07:41.552Z,82.0
2017-12-03T17:08:43.480Z,81.8
2017-12-03T17:09:45.444Z,81.6
2017-12-03T17:10:47.384Z,82.0
2017-12-03T17:11:49.685Z,82.6
2017-12-03T17:12:51.628Z,82.4
2017-12-03T17:13:54.604Z,83.0
2017-12-03T17:14:56.582Z,83.1
2017-12-03T17:15:58.525Z,83.4
2017-12-03T17:17:00.456Z,83.8
2017-12-03T17:18:02.337Z,84.2
2017-12-03T17:19:04.257Z,84.6
2017-12-03T17:20:07.363Z,84.6
2017-12-03T17:21:15.447Z,84.4
2017-12-03T17:22:21.427Z,84.6
2017-12-03T17:23:26.302Z,85.1
2017-12-03T17:24:31.842Z,84.9
2017-12-03T17:25:35.858Z,85.1
2017-12-03T17:26:38.390Z,85.7
2017-12-03T17:27:45.268Z,86.0
2017-12-03T17:28:48.835Z,87.1
2017-12-03T17:29:56.007Z,86.7
2017-12-03T17:31:00.745Z,87.6
2017-12-03T17:32:08.207Z,87.8
2017-12-03T17:33:15.206Z,86.9
2017-12-03T17:34:18.892Z,86.8
2017-12-03T17:35:23.641Z,86.4
2017-12-03T17:36:25.447Z,86.6
2017-12-03T17:37:27.527Z,85.0
2017-12-03T17:38:29.430Z,84.2
2017-12-03T17:39:31.342Z,83.7
2017-12-03T17:40:33.191Z,83.7
2017-12-03T17:41:35.094Z,83.4
2017-12-03T17:42:37.049Z,82.3
2017-12-03T17:43:38.815Z,81.9
2017-12-03T17:44:40.824Z,81.7
2017-12-03T17:45:42.653Z,82.1
2017-12-03T17:46:44.793Z,82.0
2017-12-03T17:47:46.760Z,81.5
2017-12-03T17:48:48.810Z,81.4
2017-12-03T17:49:50.837Z,80.7
2017-12-03T17:50:52.690Z,80.9
2017-12-03T17:52:01.401Z,80.8
2017-12-03T17:53:03.644Z,80.7
2017-12-03T17:54:06.847Z,80.8
2017-12-03T17:55:09.143Z,80.3
2017-12-03T17:56:12.521Z,80.1
2017-12-03T17:57:14.416Z,80.4
2017-12-03T17:58:16.484Z,80.2
2017-12-03T17:59:18.535Z,80.2
2017-12-03T18:00:21.096Z,79.4
2017-12-03T18:01:23.759Z,80.8
2017-12-03T18:02:25.795Z,80.8
2017-12-03T18:03:28.523Z,79.7
2017-12-03T18:04:31.009Z,80.1
2017-12-03T18:05:32.946Z,79.4
2017-12-03T18:06:36.757Z,79.5
2017-12-03T18:07:38.581Z,78.7
2017-12-03T18:08:43.465Z,79.2
2017-12-03T18:09:45.460Z,78.9
2017-12-03T18:10:47.512Z,78.7
2017-12-03T18:11:49.353Z,79.2
2017-12-03T18:12:51.222Z,79.1
2017-12-03T18:13:57.410Z,79.0
2017-12-03T18:15:00.197Z,78.3
2017-12-03T18:16:02.346Z,78.1
2017-12-03T18:17:04.384Z,77.7
2017-12-03T18:18:06.928Z,78.0
2017-12-03T18:19:08.787Z,78.0
2017-12-03T18:20:10.627Z,78.3
2017-12-03T18:21:12.615Z,78.4
2017-12-03T18:22:14.613Z,77.8
2017-12-03T18:23:16.739Z,77.4
2017-12-03T18:24:18.721Z,77.7
2017-12-03T18:25:21.472Z,77.9
2017-12-03T18:26:23.405Z,78.0
2017-12-03T18:27:25.870Z,78.3
2017-12-03T18:28:31.766Z,78.0
2017-12-03T18:29:33.627Z,78.7
2017-12-03T18:30:35.697Z,79.2
2017-12-03T18:31:38.236Z,78.6
2017-12-03T18:32:40.176Z,79.2
2017-12-03T18:33:42.253Z,79.3
2017-12-03T18:34:45.030Z,79.6
2017-12-03T18:35:47.384Z,80.0
2017-12-03T18:36:49.584Z,80.2
2017-12-03T18:37:51.720Z,80.6
2017-12-03T18:38:53.712Z,80.4
2017-12-03T18:39:55.816Z,80.8
2017-12-03T18:40:59.273Z,81.1
2017-12-03T18:42:01.401Z,81.3
2017-12-03T18:43:03.776Z,81.9
2017-12-03T18:44:07.958Z,80.6
2017-12-03T18:45:09.916Z,81.0
2017-12-03T18:46:12.156Z,80.8
2017-12-03T18:47:14.310Z,81.0
2017-12-03T18:48:16.388Z,81.0
2017-12-03T18:49:18.950Z,81.0
2017-12-03T18:50:21.109Z,81.1
2017-12-03T18:51:23.076Z,81.0
2017-12-03T18:52:25.320Z,80.4
2017-12-03T18:53:27.196Z,79.5
2017-12-03T18:54:29.937Z,78.6
2017-12-03T18:55:31.773Z,78.3
2017-12-03T18:56:33.611Z,77.2
2017-12-03T18:57:37.726Z,76.5
2017-12-03T18:58:40.287Z,76.0
2017-12-03T18:59:42.429Z,74.9
2017-12-03T19:00:46.815Z,73.5
2017-12-03T19:01:49.022Z,73.3
2017-12-03T19:02:51.502Z,72.7
2017-12-03T19:03:53.932Z,71.9
2017-12-03T19:04:55.843Z,71.2
2017-12-03T19:05:58.480Z,72.3
2017-12-03T19:07:01.069Z,70.9
2017-12-03T19:08:03.492Z,70.9
2017-12-03T19:09:05.612Z,69.9
2017-12-03T19:10:07.901Z,68.2
2017-12-03T19:11:09.916Z,67.9
2017-12-03T19:12:11.931Z,68.1
2017-12-03T19:13:14.273Z,67.8
2017-12-03T19:14:16.281Z,67.8
2017-12-03T19:15:18.763Z,67.7
2017-12-03T19:16:21.676Z,67.0
2017-12-03T19:17:23.669Z,67.6
2017-12-03T19:18:25.589Z,67.5
2017-12-03T19:19:27.455Z,66.8
2017-12-03T19:20:29.409Z,66.3
2017-12-03T19:21:31.347Z,66.3
2017-12-03T19:22:33.282Z,66.2
2017-12-03T19:23:35.272Z,67.0
2017-12-03T19:24:37.331Z,66.1
2017-12-03T19:25:39.248Z,66.1
2017-12-03T19:26:41.251Z,66.4
2017-12-03T19:27:44.237Z,67.3
2017-12-03T19:28:46.150Z,66.6
2017-12-03T19:29:48.823Z,66.5
2017-12-03T19:30:50.898Z,66.8
2017-12-03T19:31:52.809Z,66.7
2017-12-03T19:32:55.104Z,66.7
2017-12-03T19:33:58.315Z,67.1
2017-12-03T19:35:01.158Z,67.4
2017-12-03T19:36:03.051Z,67.5
2017-12-03T19:37:05.030Z,67.8
2017-12-03T19:38:06.946Z,68.2
2017-12-03T19:39:08.954Z,67.8
2017-12-03T19:40:10.733Z,67.4
2017-12-03T19:41:12.847Z,67.4
2017-12-03T19:42:14.653Z,67.5
2017-12-03T19:43:16.443Z,67.8
2017-12-03T19:44:18.304Z,68.1
2017-12-03T19:45:20.066Z,68.9
2017-12-03T19:46:21.788Z,69.5
2017-12-03T19:47:23.517Z,69.4
2017-12-03T19:48:25.513Z,69.4
2017-12-03T19:49:27.359Z,68.4
2017-12-03T19:50:29.091Z,68.7
2017-12-03T19:51:36.967Z,68.5
2017-12-03T19:52:38.782Z,68.1
2017-12-03T19:53:40.711Z,68.4
2017-12-03T19:54:42.821Z,68.3
2017-12-03T19:55:44.958Z,68.2
2017-12-03T19:56:47.135Z,68.5
2017-12-03T19:57:49.185Z,68.6
2017-12-03T19:58:51.680Z,68.4
2017-12-03T20:00:04.042Z,68.8
2017-12-03T20:01:05.578Z,68.6
2017-12-03T20:02:07.403Z,68.3
2017-12-03T20:03:09.129Z,68.5
2017-12-03T20:04:10.942Z,69.0
2017-12-03T20:05:12.802Z,68.9
2017-12-03T20:06:14.535Z,68.8
2017-12-03T20:07:16.397Z,69.4
2017-12-03T20:08:18.180Z,69.2
2017-12-03T20:09:20.024Z,69.1
2017-12-03T20:10:21.817Z,69.1
2017-12-03T20:11:23.595Z,69.5
2017-12-03T20:12:25.489Z,69.5
2017-12-03T20:13:27.424Z,69.6
2017-12-03T20:14:29.303Z,70.1
2017-12-03T20:15:31.169Z,68.9
2017-12-03T20:16:33.050Z,69.5
2017-12-03T20:17:34.867Z,69.5
2017-12-03T20:18:36.620Z,69.6
2017-12-03T20:19:38.368Z,69.7
2017-12-03T20:20:40.171Z,69.7
2017-12-03T20:21:41.959Z,69.5
2017-12-03T20:22:44.676Z,69.3
2017-12-03T20:23:46.441Z,69.8
2017-12-03T20:24:48.578Z,70.1
2017-12-03T20:25:50.702Z,69.4
2017-12-03T20:26:52.470Z,69.4
2017-12-03T20:27:55.816Z,69.8
2017-12-03T20:28:58.161Z,69.5
2017-12-03T20:30:00.121Z,69.5
2017-12-03T20:31:01.986Z,69.7
2017-12-03T20:32:03.891Z,69.8
2017-12-03T20:33:05.806Z,70.1
2017-12-03T20:34:07.648Z,70.0
2017-12-03T20:35:09.539Z,70.1
2017-12-03T20:36:11.425Z,69.6
2017-12-03T20:37:13.502Z,70.0
2017-12-03T20:38:15.570Z,70.0
2017-12-03T20:39:17.753Z,70.5
2017-12-03T20:40:19.737Z,70.2
2017-12-03T20:41:21.908Z,70.3
2017-12-03T20:42:23.869Z,69.5
2017-12-03T20:43:26.069Z,70.2
2017-12-03T20:44:28.516Z,70.0
2017-12-03T20:45:30.725Z,70.1
2017-12-03T20:46:32.739Z,69.9
2017-12-03T20:47:35.726Z,70.1
2017-12-03T20:48:37.874Z,69.3
2017-12-03T20:49:39.878Z,69.9
2017-12-03T20:50:42.216Z,69.1
2017-12-03T20:51:45.579Z,69.4
2017-12-03T20:52:47.948Z,69.5
2017-12-03T20:53:50.303Z,69.7
2017-12-03T20:54:53.455Z,69.7
2017-12-03T20:55:55.721Z,69.5
2017-12-03T20:56:58.929Z,69.4
2017-12-03T20:58:01.189Z,69.5
2017-12-03T20:59:03.206Z,69.5
2017-12-03T21:00:05.507Z,69.7
2017-12-03T21:01:08.031Z,69.6
2017-12-03T21:02:10.019Z,69.7
2017-12-03T21:03:12.609Z,69.6
2017-12-03T21:04:15.082Z,69.3
2017-12-03T21:05:17.385Z,70.1
2017-12-03T21:06:19.684Z,69.9
2017-12-03T21:07:21.804Z,70.2
2017-12-03T21:08:23.912Z,70.0
2017-12-03T21:09:25.966Z,70.5
2017-12-03T21:10:28.006Z,70.2
2017-12-03T21:11:30.159Z,69.6
2017-12-03T21:12:32.217Z,70.1
2017-12-03T21:13:33.982Z,69.9
2017-12-03T21:14:38.662Z,70.0
2017-12-03T21:15:40.730Z,70.5
2017-12-03T21:16:43.157Z,70.0
2017-12-03T21:17:44.942Z,70.6
2017-12-03T21:18:46.747Z,70.5
2017-12-03T21:19:48.654Z,70.5
2017-12-03T21:20:50.590Z,70.6
2017-12-03T21:21:52.423Z,70.8
2017-12-03T21:22:54.361Z,71.4
2017-12-03T21:23:58.175Z,70.5
2017-12-03T21:24:59.960Z,70.4
2017-12-03T21:26:02.512Z,71.0
2017-12-03T21:27:04.625Z,70.7
2017-12-03T21:28:06.502Z,70.9
2017-12-03T21:29:08.384Z,70.9
2017-12-03T21:30:10.393Z,70.9
2017-12-03T21:31:12.771Z,71.1
2017-12-03T21:32:14.651Z,71.3
2017-12-03T21:33:16.600Z,71.6
2017-12-03T21:34:18.508Z,71.4
2017-12-03T21:35:20.272Z,71.5
2017-12-03T21:36:22.068Z,71.5
2017-12-03T21:37:24.413Z,71.3
2017-12-03T21:38:26.265Z,71.6
2017-12-03T21:39:28.107Z,71.4
2017-12-03T21:40:29.908Z,71.9
2017-12-03T21:41:31.845Z,71.9
2017-12-03T21:42:33.608Z,72.0
2017-12-03T21:43:35.787Z,71.7
2017-12-03T21:44:37.568Z,71.4
2017-12-03T21:45:39.643Z,71.1
2017-12-03T21:46:41.491Z,71.2
2017-12-03T21:47:43.420Z,71.2
2017-12-03T21:48:45.383Z,70.7
2017-12-03T21:49:47.288Z,70.9
2017-12-03T21:50:49.337Z,70.9
2017-12-03T21:51:51.163Z,70.7
2017-12-03T21:52:53.057Z,71.1
2017-12-03T21:53:54.854Z,70.9
2017-12-03T21:54:56.713Z,70.8
2017-12-03T21:55:58.616Z,71.1
2017-12-03T21:57:00.486Z,71.5
2017-12-03T21:58:02.392Z,71.7
2017-12-03T21:59:04.371Z,71.8
2017-12-03T22:00:07.011Z,72.0
2017-12-03T22:01:08.864Z,71.3
2017-12-03T22:02:10.737Z,71.9
2017-12-03T22:03:12.729Z,71.4
2017-12-03T22:04:14.887Z,72.0
2017-12-03T22:05:16.773Z,72.0
2017-12-03T22:06:18.679Z,72.0
2017-12-03T22:07:20.532Z,72.0
2017-12-03T22:08:22.420Z,72.1
2017-12-03T22:09:24.366Z,72.3
2017-12-03T22:10:26.213Z,71.3
2017-12-03T22:11:28.241Z,71.5
2017-12-03T22:12:30.067Z,70.4
2017-12-03T22:13:31.971Z,70.7
2017-12-03T22:14:34.053Z,70.1
2017-12-03T22:15:35.934Z,70.2
2017-12-03T22:16:37.765Z,70.0
2017-12-03T22:17:39.717Z,70.6
2017-12-03T22:18:41.612Z,69.9
2017-12-03T22:19:43.578Z,70.5
2017-12-03T22:20:45.418Z,70.2
2017-12-03T22:21:47.401Z,70.4
2017-12-03T22:22:49.199Z,70.6
2017-12-03T22:23:50.996Z,69.9
2017-12-03T22:24:52.817Z,70.3
2017-12-03T22:26:05.574Z,70.1
2017-12-03T22:27:06.958Z,70.2
2017-12-03T22:28:08.834Z,69.9
2017-12-03T22:29:10.623Z,69.9
2017-12-03T22:30:12.431Z,70.5
2017-12-03T22:31:14.212Z,70.6
2017-12-03T22:32:16.020Z,70.7
2017-12-03T22:33:17.849Z,70.9
2017-12-03T22:34:19.583Z,70.3
2017-12-03T22:35:21.389Z,70.7
2017-12-03T22:36:23.152Z,70.7
2017-12-03T22:37:24.909Z,70.6
2017-12-03T22:38:26.659Z,70.2
2017-12-03T22:39:28.422Z,70.0
2017-12-03T22:40:30.170Z,70.7
2017-12-03T22:41:31.950Z,71.9
2017-12-03T22:42:45.097Z,70.7
2017-12-03T22:43:45.989Z,71.4
2017-12-03T22:44:47.812Z,70.7
2017-12-03T22:45:49.683Z,69.8
2017-12-03T22:46:51.514Z,70.4
2017-12-03T22:47:53.447Z,69.9
2017-12-03T22:48:55.265Z,70.2
2017-12-03T22:49:57.103Z,70.2
2017-12-03T22:50:59.003Z,70.2
2017-12-03T22:52:00.828Z,69.8
2017-12-03T22:53:02.683Z,69.3
2017-12-03T22:54:04.515Z,70.1
2017-12-03T22:55:06.646Z,70.3
2017-12-03T22:56:08.465Z,69.9
2017-12-03T22:57:10.273Z,69.5
2017-12-03T22:58:12.151Z,69.2
2017-12-03T22:59:14.066Z,69.6
2017-12-03T23:00:15.918Z,69.7
2017-12-03T23:01:17.837Z,69.0
2017-12-03T23:02:19.685Z,70.6
2017-12-03T23:03:21.555Z,70.0
2017-12-03T23:04:23.418Z,69.7
2017-12-03T23:05:25.234Z,69.3
2017-12-03T23:06:26.973Z,69.4
2017-12-03T23:07:28.880Z,69.4
2017-12-03T23:08:30.699Z,69.8
2017-12-03T23:09:32.748Z,69.7
2017-12-03T23:10:34.609Z,69.5
2017-12-03T23:11:36.404Z,69.1
2017-12-03T23:12:38.275Z,68.4
2017-12-03T23:13:40.104Z,68.5
2017-12-03T23:14:41.843Z,68.6
2017-12-03T23:15:43.681Z,69.3
2017-12-03T23:16:45.617Z,68.5
2017-12-03T23:17:47.494Z,69.2
2017-12-03T23:18:49.318Z,68.6
2017-12-03T23:19:51.168Z,69.4
2017-12-03T23:20:52.989Z,69.1
2017-12-03T23:21:54.782Z,68.7
2017-12-03T23:22:56.536Z,68.6
2017-12-03T23:23:58.377Z,69.1
2017-12-03T23:25:00.171Z,69.5
2017-12-03T23:26:01.950Z,68.3
2017-12-03T23:27:03.740Z,68.2
2017-12-03T23:28:05.595Z,68.5
2017-12-03T23:29:07.437Z,68.5
2017-12-03T23:30:09.185Z,68.7
2017-12-03T23:31:10.990Z,68.8
2017-12-03T23:32:13.325Z,68.2
2017-12-03T23:33:14.990Z,67.6
2017-12-03T23:34:16.719Z,67.8
2017-12-03T23:35:18.452Z,68.1
2017-12-03T23:36:20.164Z,67.8
2017-12-03T23:37:21.918Z,68.0
2017-12-03T23:38:23.698Z,68.0
2017-12-03T23:39:25.416Z,68.4
2017-12-03T23:40:27.152Z,68.3
2017-12-03T23:41:28.904Z,68.5
2017-12-03T23:42:30.623Z,68.4
2017-12-03T23:43:32.351Z,68.7
2017-12-03T23:44:34.103Z,68.7
2017-12-03T23:45:35.851Z,68.2
2017-12-03T23:46:37.597Z,68.2
2017-12-03T23:47:39.344Z,68.2
2017-12-03T23:48:41.114Z,67.7
2017-12-03T23:49:42.821Z,68.0
2017-12-03T23:50:44.666Z,68.6
2017-12-03T23:51:46.561Z,68.5
2017-12-03T23:52:48.353Z,68.6
2017-12-03T23:53:50.186Z,68.5
2017-12-03T23:54:51.930Z,68.5
2017-12-03T23:55:53.664Z,69.2
2017-12-03T23:56:55.370Z,68.8
2017-12-03T23:57:57.160Z,69.5
2017-12-03T23:58:58.873Z,70.3
